sensor_id;sensor_type;location;lat;lon;timestamp;pressure;altitude;pressure_sealevel;temperature
11849;BMP180;5983;49.966;8.052;2022-11-25T00:02:25;100377.00;;;4.30
11849;BMP180;5983;49.966;8.052;2022-11-25T00:04:52;100373.00;;;4.30
11849;BMP180;5983;49.966;8.052;2022-11-25T00:07:19;100375.00;;;4.40
11849;BMP180;5983;49.966;8.052;2022-11-25T00:09:46;100376.00;;;4.40
11849;BMP180;5983;49.966;8.052;2022-11-25T00:12:15;100382.00;;;4.50
11849;BMP180;5983;49.966;8.052;2022-11-25T00:14:42;100382.00;;;4.50
11849;BMP180;5983;49.966;8.052;2022-11-25T00:17:09;100365.00;;;4.60
11849;BMP180;5983;49.966;8.052;2022-11-25T00:19:36;100378.00;;;4.60
11849;BMP180;5983;49.966;8.052;2022-11-25T00:22:03;100375.00;;;4.70
11849;BMP180;5983;49.966;8.052;2022-11-25T00:24:30;100382.00;;;4.70
11849;BMP180;5983;49.966;8.052;2022-11-25T00:26:57;100376.00;;;4.80
11849;BMP180;5983;49.966;8.052;2022-11-25T00:29:25;100376.00;;;4.80
11849;BMP180;5983;49.966;8.052;2022-11-25T00:31:52;100372.00;;;4.70
11849;BMP180;5983;49.966;8.052;2022-11-25T00:34:19;100371.00;;;4.70
11849;BMP180;5983;49.966;8.052;2022-11-25T00:36:46;100384.00;;;4.80
11849;BMP180;5983;49.966;8.052;2022-11-25T00:39:16;100373.00;;;4.80
11849;BMP180;5983;49.966;8.052;2022-11-25T00:41:44;100368.00;;;4.80
11849;BMP180;5983;49.966;8.052;2022-11-25T00:44:30;100365.00;;;4.80
11849;BMP180;5983;49.966;8.052;2022-11-25T00:47:07;100365.00;;;4.90
11849;BMP180;5983;49.966;8.052;2022-11-25T00:49:35;100373.00;;;4.90
11849;BMP180;5983;49.966;8.052;2022-11-25T00:52:03;100363.00;;;4.90
11849;BMP180;5983;49.966;8.052;2022-11-25T00:54:31;100365.00;;;4.90
11849;BMP180;5983;49.966;8.052;2022-11-25T00:56:58;100370.00;;;4.90
11849;BMP180;5983;49.966;8.052;2022-11-25T00:59:25;100367.00;;;4.90
11849;BMP180;5983;49.966;8.052;2022-11-25T01:01:54;100361.00;;;4.80
11849;BMP180;5983;49.966;8.052;2022-11-25T01:04:22;100364.00;;;4.80
11849;BMP180;5983;49.966;8.052;2022-11-25T01:06:49;100361.00;;;4.70
11849;BMP180;5983;49.966;8.052;2022-11-25T01:09:16;100367.00;;;4.60
11849;BMP180;5983;49.966;8.052;2022-11-25T01:11:43;100371.00;;;4.50
11849;BMP180;5983;49.966;8.052;2022-11-25T01:14:10;100371.00;;;4.50
11849;BMP180;5983;49.966;8.052;2022-11-25T01:16:37;100367.00;;;4.40
11849;BMP180;5983;49.966;8.052;2022-11-25T01:19:05;100373.00;;;4.40
11849;BMP180;5983;49.966;8.052;2022-11-25T01:21:34;100373.00;;;4.40
11849;BMP180;5983;49.966;8.052;2022-11-25T01:24:03;100372.00;;;4.40
11849;BMP180;5983;49.966;8.052;2022-11-25T01:26:32;100378.00;;;4.40
11849;BMP180;5983;49.966;8.052;2022-11-25T01:29:01;100384.00;;;4.40
11849;BMP180;5983;49.966;8.052;2022-11-25T01:31:32;100377.00;;;4.30
11849;BMP180;5983;49.966;8.052;2022-11-25T01:34:02;100372.00;;;4.30
11849;BMP180;5983;49.966;8.052;2022-11-25T01:36:31;100363.00;;;4.30
11849;BMP180;5983;49.966;8.052;2022-11-25T01:38:59;100374.00;;;4.20
11849;BMP180;5983;49.966;8.052;2022-11-25T01:41:29;100375.00;;;4.10
11849;BMP180;5983;49.966;8.052;2022-11-25T01:44:09;100370.00;;;4.10
11849;BMP180;5983;49.966;8.052;2022-11-25T01:47:03;100373.00;;;4.00
11849;BMP180;5983;49.966;8.052;2022-11-25T01:49:39;100366.00;;;3.90
11849;BMP180;5983;49.966;8.052;2022-11-25T01:52:22;100365.00;;;3.90
11849;BMP180;5983;49.966;8.052;2022-11-25T01:54:54;100355.00;;;3.80
11849;BMP180;5983;49.966;8.052;2022-11-25T01:57:28;100349.00;;;3.80
11849;BMP180;5983;49.966;8.052;2022-11-25T02:00:01;100350.00;;;3.70
11849;BMP180;5983;49.966;8.052;2022-11-25T02:02:30;100345.00;;;3.70
11849;BMP180;5983;49.966;8.052;2022-11-25T02:04:58;100346.00;;;3.70
11849;BMP180;5983;49.966;8.052;2022-11-25T02:07:33;100352.00;;;3.70
11849;BMP180;5983;49.966;8.052;2022-11-25T02:10:05;100344.00;;;3.70
11849;BMP180;5983;49.966;8.052;2022-11-25T02:12:34;100352.00;;;3.80
11849;BMP180;5983;49.966;8.052;2022-11-25T02:15:04;100353.00;;;3.70
11849;BMP180;5983;49.966;8.052;2022-11-25T02:17:32;100347.00;;;3.70
11849;BMP180;5983;49.966;8.052;2022-11-25T02:20:03;100351.00;;;3.70
11849;BMP180;5983;49.966;8.052;2022-11-25T02:22:52;100352.00;;;3.70
11849;BMP180;5983;49.966;8.052;2022-11-25T02:25:28;100354.00;;;3.70
11849;BMP180;5983;49.966;8.052;2022-11-25T02:28:00;100344.00;;;3.60
11849;BMP180;5983;49.966;8.052;2022-11-25T02:30:28;100337.00;;;3.60
11849;BMP180;5983;49.966;8.052;2022-11-25T02:36:36;100356.00;;;3.60
11849;BMP180;5983;49.966;8.052;2022-11-25T02:39:04;100349.00;;;3.60
11849;BMP180;5983;49.966;8.052;2022-11-25T02:41:39;100349.00;;;3.60
11849;BMP180;5983;49.966;8.052;2022-11-25T02:44:09;100348.00;;;3.70
11849;BMP180;5983;49.966;8.052;2022-11-25T02:46:36;100351.00;;;3.70
11849;BMP180;5983;49.966;8.052;2022-11-25T02:49:04;100339.00;;;3.70
11849;BMP180;5983;49.966;8.052;2022-11-25T02:51:31;100351.00;;;3.70
11849;BMP180;5983;49.966;8.052;2022-11-25T02:53:59;100350.00;;;3.70
11849;BMP180;5983;49.966;8.052;2022-11-25T02:56:30;100342.00;;;3.60
11849;BMP180;5983;49.966;8.052;2022-11-25T02:58:59;100353.00;;;3.60
11849;BMP180;5983;49.966;8.052;2022-11-25T03:01:27;100348.00;;;3.60
11849;BMP180;5983;49.966;8.052;2022-11-25T03:03:54;100343.00;;;3.70
11849;BMP180;5983;49.966;8.052;2022-11-25T03:06:21;100334.00;;;3.80
11849;BMP180;5983;49.966;8.052;2022-11-25T03:08:49;100338.00;;;3.80
11849;BMP180;5983;49.966;8.052;2022-11-25T03:11:16;100335.00;;;3.90
11849;BMP180;5983;49.966;8.052;2022-11-25T03:13:43;100343.00;;;3.90
11849;BMP180;5983;49.966;8.052;2022-11-25T03:16:11;100336.00;;;3.90
11849;BMP180;5983;49.966;8.052;2022-11-25T03:18:38;100333.00;;;4.00
11849;BMP180;5983;49.966;8.052;2022-11-25T03:21:05;100332.00;;;4.10
11849;BMP180;5983;49.966;8.052;2022-11-25T03:23:33;100345.00;;;4.10
11849;BMP180;5983;49.966;8.052;2022-11-25T03:26:04;100335.00;;;4.10
11849;BMP180;5983;49.966;8.052;2022-11-25T03:28:32;100331.00;;;4.00
11849;BMP180;5983;49.966;8.052;2022-11-25T03:30:58;100331.00;;;4.00
11849;BMP180;5983;49.966;8.052;2022-11-25T03:33:27;100333.00;;;4.10
11849;BMP180;5983;49.966;8.052;2022-11-25T03:35:54;100332.00;;;4.10
11849;BMP180;5983;49.966;8.052;2022-11-25T03:38:21;100324.00;;;4.10
11849;BMP180;5983;49.966;8.052;2022-11-25T03:40:47;100334.00;;;4.20
11849;BMP180;5983;49.966;8.052;2022-11-25T03:43:14;100340.00;;;4.20
11849;BMP180;5983;49.966;8.052;2022-11-25T03:45:42;100344.00;;;4.20
11849;BMP180;5983;49.966;8.052;2022-11-25T03:48:09;100348.00;;;4.20
11849;BMP180;5983;49.966;8.052;2022-11-25T03:50:37;100349.00;;;4.20
11849;BMP180;5983;49.966;8.052;2022-11-25T03:53:04;100348.00;;;4.20
11849;BMP180;5983;49.966;8.052;2022-11-25T03:55:31;100348.00;;;4.20
11849;BMP180;5983;49.966;8.052;2022-11-25T03:57:58;100349.00;;;4.20
11849;BMP180;5983;49.966;8.052;2022-11-25T04:00:24;100358.00;;;4.20
11849;BMP180;5983;49.966;8.052;2022-11-25T04:02:51;100344.00;;;4.20
11849;BMP180;5983;49.966;8.052;2022-11-25T04:05:18;100349.00;;;4.30
11849;BMP180;5983;49.966;8.052;2022-11-25T04:07:47;100351.00;;;4.40
11849;BMP180;5983;49.966;8.052;2022-11-25T04:10:14;100344.00;;;4.40
11849;BMP180;5983;49.966;8.052;2022-11-25T04:12:40;100349.00;;;4.30
11849;BMP180;5983;49.966;8.052;2022-11-25T04:15:15;100354.00;;;4.30
11849;BMP180;5983;49.966;8.052;2022-11-25T04:17:43;100354.00;;;4.30
11849;BMP180;5983;49.966;8.052;2022-11-25T04:20:11;100349.00;;;4.40
11849;BMP180;5983;49.966;8.052;2022-11-25T04:22:39;100349.00;;;4.40
11849;BMP180;5983;49.966;8.052;2022-11-25T04:25:08;100326.00;;;4.40
11849;BMP180;5983;49.966;8.052;2022-11-25T04:27:35;100337.00;;;4.40
11849;BMP180;5983;49.966;8.052;2022-11-25T04:30:03;100335.00;;;4.40
11849;BMP180;5983;49.966;8.052;2022-11-25T04:32:30;100342.00;;;4.40
11849;BMP180;5983;49.966;8.052;2022-11-25T04:34:57;100354.00;;;4.50
11849;BMP180;5983;49.966;8.052;2022-11-25T04:37:24;100354.00;;;4.50
11849;BMP180;5983;49.966;8.052;2022-11-25T04:39:51;100345.00;;;4.50
11849;BMP180;5983;49.966;8.052;2022-11-25T04:42:20;100355.00;;;4.60
11849;BMP180;5983;49.966;8.052;2022-11-25T04:45:00;100347.00;;;4.60
11849;BMP180;5983;49.966;8.052;2022-11-25T04:47:28;100337.00;;;4.60
11849;BMP180;5983;49.966;8.052;2022-11-25T04:49:55;100342.00;;;4.70
11849;BMP180;5983;49.966;8.052;2022-11-25T04:52:22;100333.00;;;4.70
11849;BMP180;5983;49.966;8.052;2022-11-25T04:54:49;100330.00;;;4.70
11849;BMP180;5983;49.966;8.052;2022-11-25T04:57:16;100319.00;;;4.80
11849;BMP180;5983;49.966;8.052;2022-11-25T04:59:45;100326.00;;;4.80
11849;BMP180;5983;49.966;8.052;2022-11-25T05:02:16;100330.00;;;4.70
11849;BMP180;5983;49.966;8.052;2022-11-25T05:04:46;100338.00;;;4.80
11849;BMP180;5983;49.966;8.052;2022-11-25T05:07:15;100335.00;;;4.80
11849;BMP180;5983;49.966;8.052;2022-11-25T05:09:42;100337.00;;;4.80
11849;BMP180;5983;49.966;8.052;2022-11-25T05:12:12;100336.00;;;4.80
11849;BMP180;5983;49.966;8.052;2022-11-25T05:14:39;100339.00;;;4.80
11849;BMP180;5983;49.966;8.052;2022-11-25T05:17:13;100347.00;;;4.70
11849;BMP180;5983;49.966;8.052;2022-11-25T05:19:40;100352.00;;;4.70
11849;BMP180;5983;49.966;8.052;2022-11-25T05:22:10;100346.00;;;4.80
11849;BMP180;5983;49.966;8.052;2022-11-25T05:24:37;100346.00;;;4.70
11849;BMP180;5983;49.966;8.052;2022-11-25T05:27:05;100341.00;;;4.70
11849;BMP180;5983;49.966;8.052;2022-11-25T05:29:32;100352.00;;;4.70
11849;BMP180;5983;49.966;8.052;2022-11-25T05:32:00;100361.00;;;4.70
11849;BMP180;5983;49.966;8.052;2022-11-25T05:34:29;100354.00;;;4.80
11849;BMP180;5983;49.966;8.052;2022-11-25T05:36:56;100359.00;;;4.80
11849;BMP180;5983;49.966;8.052;2022-11-25T05:39:24;100356.00;;;4.80
11849;BMP180;5983;49.966;8.052;2022-11-25T05:41:51;100357.00;;;4.80
11849;BMP180;5983;49.966;8.052;2022-11-25T05:44:18;100370.00;;;4.90
11849;BMP180;5983;49.966;8.052;2022-11-25T05:46:45;100372.00;;;4.90
11849;BMP180;5983;49.966;8.052;2022-11-25T05:49:13;100368.00;;;4.90
11849;BMP180;5983;49.966;8.052;2022-11-25T05:51:42;100369.00;;;5.00
11849;BMP180;5983;49.966;8.052;2022-11-25T05:54:09;100364.00;;;5.00
11849;BMP180;5983;49.966;8.052;2022-11-25T05:56:36;100359.00;;;5.00
11849;BMP180;5983;49.966;8.052;2022-11-25T05:59:04;100353.00;;;5.10
11849;BMP180;5983;49.966;8.052;2022-11-25T06:01:31;100371.00;;;5.10
11849;BMP180;5983;49.966;8.052;2022-11-25T06:03:59;100371.00;;;5.10
11849;BMP180;5983;49.966;8.052;2022-11-25T06:06:26;100376.00;;;5.10
11849;BMP180;5983;49.966;8.052;2022-11-25T06:08:55;100383.00;;;5.10
11849;BMP180;5983;49.966;8.052;2022-11-25T06:11:22;100384.00;;;5.00
11849;BMP180;5983;49.966;8.052;2022-11-25T06:13:50;100386.00;;;5.10
11849;BMP180;5983;49.966;8.052;2022-11-25T06:16:20;100373.00;;;5.10
11849;BMP180;5983;49.966;8.052;2022-11-25T06:18:47;100384.00;;;5.10
11849;BMP180;5983;49.966;8.052;2022-11-25T06:21:15;100383.00;;;5.10
11849;BMP180;5983;49.966;8.052;2022-11-25T06:23:42;100397.00;;;5.20
11849;BMP180;5983;49.966;8.052;2022-11-25T06:26:14;100399.00;;;5.20
11849;BMP180;5983;49.966;8.052;2022-11-25T06:28:42;100400.00;;;5.30
11849;BMP180;5983;49.966;8.052;2022-11-25T06:31:12;100411.00;;;5.30
11849;BMP180;5983;49.966;8.052;2022-11-25T06:33:41;100411.00;;;5.30
11849;BMP180;5983;49.966;8.052;2022-11-25T06:36:09;100417.00;;;5.30
11849;BMP180;5983;49.966;8.052;2022-11-25T06:38:41;100412.00;;;5.30
11849;BMP180;5983;49.966;8.052;2022-11-25T06:41:08;100408.00;;;5.30
11849;BMP180;5983;49.966;8.052;2022-11-25T06:43:37;100412.00;;;5.30
11849;BMP180;5983;49.966;8.052;2022-11-25T06:46:06;100411.00;;;5.30
11849;BMP180;5983;49.966;8.052;2022-11-25T06:48:34;100418.00;;;5.30
11849;BMP180;5983;49.966;8.052;2022-11-25T06:51:04;100418.00;;;5.40
11849;BMP180;5983;49.966;8.052;2022-11-25T06:53:32;100423.00;;;5.40
11849;BMP180;5983;49.966;8.052;2022-11-25T06:56:06;100430.00;;;5.40
11849;BMP180;5983;49.966;8.052;2022-11-25T06:58:34;100431.00;;;5.40
11849;BMP180;5983;49.966;8.052;2022-11-25T07:01:06;100430.00;;;5.40
11849;BMP180;5983;49.966;8.052;2022-11-25T07:03:34;100429.00;;;5.40
11849;BMP180;5983;49.966;8.052;2022-11-25T07:06:01;100434.00;;;5.40
11849;BMP180;5983;49.966;8.052;2022-11-25T07:08:29;100426.00;;;5.50
11849;BMP180;5983;49.966;8.052;2022-11-25T07:11:02;100437.00;;;5.50
11849;BMP180;5983;49.966;8.052;2022-11-25T07:13:30;100434.00;;;5.50
11849;BMP180;5983;49.966;8.052;2022-11-25T07:16:00;100436.00;;;5.50
11849;BMP180;5983;49.966;8.052;2022-11-25T07:18:30;100438.00;;;5.60
11849;BMP180;5983;49.966;8.052;2022-11-25T07:21:03;100430.00;;;5.50
11849;BMP180;5983;49.966;8.052;2022-11-25T07:23:32;100438.00;;;5.50
11849;BMP180;5983;49.966;8.052;2022-11-25T07:26:04;100446.00;;;5.60
11849;BMP180;5983;49.966;8.052;2022-11-25T07:28:32;100432.00;;;5.60
11849;BMP180;5983;49.966;8.052;2022-11-25T07:31:09;100441.00;;;5.60
11849;BMP180;5983;49.966;8.052;2022-11-25T07:33:37;100437.00;;;5.70
11849;BMP180;5983;49.966;8.052;2022-11-25T07:36:06;100435.00;;;5.70
11849;BMP180;5983;49.966;8.052;2022-11-25T07:38:35;100434.00;;;5.70
11849;BMP180;5983;49.966;8.052;2022-11-25T07:41:05;100437.00;;;5.70
11849;BMP180;5983;49.966;8.052;2022-11-25T07:43:33;100449.00;;;5.70
11849;BMP180;5983;49.966;8.052;2022-11-25T07:46:12;100442.00;;;5.70
11849;BMP180;5983;49.966;8.052;2022-11-25T07:48:42;100452.00;;;5.70
11849;BMP180;5983;49.966;8.052;2022-11-25T07:51:21;100444.00;;;5.80
11849;BMP180;5983;49.966;8.052;2022-11-25T07:53:49;100456.00;;;5.80
11849;BMP180;5983;49.966;8.052;2022-11-25T07:56:17;100456.00;;;5.80
11849;BMP180;5983;49.966;8.052;2022-11-25T07:58:44;100455.00;;;5.80
11849;BMP180;5983;49.966;8.052;2022-11-25T08:01:14;100449.00;;;5.80
11849;BMP180;5983;49.966;8.052;2022-11-25T08:03:44;100456.00;;;5.90
11849;BMP180;5983;49.966;8.052;2022-11-25T08:06:15;100459.00;;;5.90
11849;BMP180;5983;49.966;8.052;2022-11-25T08:08:43;100466.00;;;6.00
11849;BMP180;5983;49.966;8.052;2022-11-25T08:11:14;100458.00;;;6.00
11849;BMP180;5983;49.966;8.052;2022-11-25T08:13:42;100464.00;;;6.10
11849;BMP180;5983;49.966;8.052;2022-11-25T08:16:12;100474.00;;;6.20
11849;BMP180;5983;49.966;8.052;2022-11-25T08:18:41;100471.00;;;6.40
11849;BMP180;5983;49.966;8.052;2022-11-25T08:21:12;100480.00;;;6.50
11849;BMP180;5983;49.966;8.052;2022-11-25T08:23:41;100487.00;;;6.50
11849;BMP180;5983;49.966;8.052;2022-11-25T08:26:12;100482.00;;;6.60
11849;BMP180;5983;49.966;8.052;2022-11-25T08:28:40;100486.00;;;6.80
11849;BMP180;5983;49.966;8.052;2022-11-25T08:31:11;100487.00;;;6.90
11849;BMP180;5983;49.966;8.052;2022-11-25T08:33:38;100486.00;;;6.90
11849;BMP180;5983;49.966;8.052;2022-11-25T08:36:09;100483.00;;;7.00
11849;BMP180;5983;49.966;8.052;2022-11-25T08:38:36;100488.00;;;7.00
11849;BMP180;5983;49.966;8.052;2022-11-25T08:41:09;100486.00;;;7.00
11849;BMP180;5983;49.966;8.052;2022-11-25T08:43:36;100501.00;;;7.10
11849;BMP180;5983;49.966;8.052;2022-11-25T08:46:08;100494.00;;;7.20
11849;BMP180;5983;49.966;8.052;2022-11-25T08:48:36;100500.00;;;7.40
11849;BMP180;5983;49.966;8.052;2022-11-25T08:51:10;100498.00;;;7.50
11849;BMP180;5983;49.966;8.052;2022-11-25T08:53:39;100510.00;;;7.60
11849;BMP180;5983;49.966;8.052;2022-11-25T08:56:07;100513.00;;;7.80
11849;BMP180;5983;49.966;8.052;2022-11-25T08:58:35;100516.00;;;7.80
11849;BMP180;5983;49.966;8.052;2022-11-25T09:01:03;100508.00;;;7.70
11849;BMP180;5983;49.966;8.052;2022-11-25T09:03:32;100521.00;;;7.70
11849;BMP180;5983;49.966;8.052;2022-11-25T09:06:00;100525.00;;;7.70
11849;BMP180;5983;49.966;8.052;2022-11-25T09:08:28;100536.00;;;7.60
11849;BMP180;5983;49.966;8.052;2022-11-25T09:10:56;100525.00;;;7.60
11849;BMP180;5983;49.966;8.052;2022-11-25T09:13:23;100520.00;;;7.50
11849;BMP180;5983;49.966;8.052;2022-11-25T09:15:50;100525.00;;;7.50
11849;BMP180;5983;49.966;8.052;2022-11-25T09:18:17;100523.00;;;7.50
11849;BMP180;5983;49.966;8.052;2022-11-25T09:20:46;100532.00;;;7.50
11849;BMP180;5983;49.966;8.052;2022-11-25T09:23:13;100538.00;;;7.40
11849;BMP180;5983;49.966;8.052;2022-11-25T09:25:41;100527.00;;;7.40
11849;BMP180;5983;49.966;8.052;2022-11-25T09:28:09;100537.00;;;7.40
11849;BMP180;5983;49.966;8.052;2022-11-25T09:30:36;100538.00;;;7.50
11849;BMP180;5983;49.966;8.052;2022-11-25T09:33:03;100554.00;;;7.60
11849;BMP180;5983;49.966;8.052;2022-11-25T09:35:30;100548.00;;;7.70
11849;BMP180;5983;49.966;8.052;2022-11-25T09:37:57;100553.00;;;7.80
11849;BMP180;5983;49.966;8.052;2022-11-25T09:40:34;100553.00;;;7.80
11849;BMP180;5983;49.966;8.052;2022-11-25T09:43:17;100555.00;;;7.80
11849;BMP180;5983;49.966;8.052;2022-11-25T09:46:36;100558.00;;;7.90
11849;BMP180;5983;49.966;8.052;2022-11-25T09:49:19;100560.00;;;8.10
11849;BMP180;5983;49.966;8.052;2022-11-25T09:52:02;100573.00;;;8.80
11849;BMP180;5983;49.966;8.052;2022-11-25T09:54:37;100570.00;;;9.10
11849;BMP180;5983;49.966;8.052;2022-11-25T09:57:21;100587.00;;;9.60
11849;BMP180;5983;49.966;8.052;2022-11-25T10:00:05;100590.00;;;11.40
11849;BMP180;5983;49.966;8.052;2022-11-25T10:02:41;100597.00;;;13.50
11849;BMP180;5983;49.966;8.052;2022-11-25T10:05:19;100598.00;;;14.90
11849;BMP180;5983;49.966;8.052;2022-11-25T10:07:54;100603.00;;;16.40
11849;BMP180;5983;49.966;8.052;2022-11-25T10:10:26;100608.00;;;17.60
11849;BMP180;5983;49.966;8.052;2022-11-25T10:12:57;100618.00;;;18.30
11849;BMP180;5983;49.966;8.052;2022-11-25T10:15:32;100613.00;;;19.30
11849;BMP180;5983;49.966;8.052;2022-11-25T10:18:09;100609.00;;;19.10
11849;BMP180;5983;49.966;8.052;2022-11-25T10:20:40;100601.00;;;18.20
11849;BMP180;5983;49.966;8.052;2022-11-25T10:23:13;100616.00;;;17.90
11849;BMP180;5983;49.966;8.052;2022-11-25T10:25:46;100611.00;;;18.50
11849;BMP180;5983;49.966;8.052;2022-11-25T10:28:19;100617.00;;;18.10
11849;BMP180;5983;49.966;8.052;2022-11-25T10:30:58;100620.00;;;18.10
11849;BMP180;5983;49.966;8.052;2022-11-25T10:33:29;100618.00;;;17.50
11849;BMP180;5983;49.966;8.052;2022-11-25T10:36:03;100605.00;;;16.90
11849;BMP180;5983;49.966;8.052;2022-11-25T10:38:40;100598.00;;;15.80
11849;BMP180;5983;49.966;8.052;2022-11-25T10:41:15;100609.00;;;14.70
11849;BMP180;5983;49.966;8.052;2022-11-25T10:43:44;100603.00;;;13.70
11849;BMP180;5983;49.966;8.052;2022-11-25T10:46:29;100599.00;;;12.80
11849;BMP180;5983;49.966;8.052;2022-11-25T10:49:03;100593.00;;;12.20
11849;BMP180;5983;49.966;8.052;2022-11-25T10:51:41;100612.00;;;11.70
11849;BMP180;5983;49.966;8.052;2022-11-25T10:54:15;100601.00;;;11.40
11849;BMP180;5983;49.966;8.052;2022-11-25T10:56:51;100607.00;;;11.00
11849;BMP180;5983;49.966;8.052;2022-11-25T10:59:25;100621.00;;;10.80
11849;BMP180;5983;49.966;8.052;2022-11-25T11:02:13;100629.00;;;10.60
11849;BMP180;5983;49.966;8.052;2022-11-25T11:04:59;100625.00;;;10.40
11849;BMP180;5983;49.966;8.052;2022-11-25T11:07:30;100613.00;;;10.30
11849;BMP180;5983;49.966;8.052;2022-11-25T11:10:17;100614.00;;;11.20
11849;BMP180;5983;49.966;8.052;2022-11-25T11:12:56;100627.00;;;14.00
11849;BMP180;5983;49.966;8.052;2022-11-25T11:15:26;100630.00;;;16.50
11849;BMP180;5983;49.966;8.052;2022-11-25T11:17:56;100641.00;;;18.50
11849;BMP180;5983;49.966;8.052;2022-11-25T11:20:26;100654.00;;;20.20
11849;BMP180;5983;49.966;8.052;2022-11-25T11:23:00;100654.00;;;20.30
11849;BMP180;5983;49.966;8.052;2022-11-25T11:25:31;100657.00;;;18.60
11849;BMP180;5983;49.966;8.052;2022-11-25T11:28:00;100665.00;;;17.00
11849;BMP180;5983;49.966;8.052;2022-11-25T11:30:31;100671.00;;;15.80
11849;BMP180;5983;49.966;8.052;2022-11-25T11:33:34;100665.00;;;14.50
11849;BMP180;5983;49.966;8.052;2022-11-25T11:36:33;100668.00;;;13.60
11849;BMP180;5983;49.966;8.052;2022-11-25T11:39:27;100671.00;;;12.90
11849;BMP180;5983;49.966;8.052;2022-11-25T11:42:06;100666.00;;;12.30
11849;BMP180;5983;49.966;8.052;2022-11-25T11:44:59;100670.00;;;11.90
11849;BMP180;5983;49.966;8.052;2022-11-25T11:47:35;100663.00;;;11.80
11849;BMP180;5983;49.966;8.052;2022-11-25T11:50:31;100656.00;;;11.60
11849;BMP180;5983;49.966;8.052;2022-11-25T11:53:10;100671.00;;;11.50
11849;BMP180;5983;49.966;8.052;2022-11-25T11:56:04;100669.00;;;11.30
11849;BMP180;5983;49.966;8.052;2022-11-25T11:58:47;100670.00;;;11.10
11849;BMP180;5983;49.966;8.052;2022-11-25T12:01:38;100677.00;;;10.90
11849;BMP180;5983;49.966;8.052;2022-11-25T12:04:17;100681.00;;;10.80
11849;BMP180;5983;49.966;8.052;2022-11-25T12:07:00;100676.00;;;10.70
11849;BMP180;5983;49.966;8.052;2022-11-25T12:09:32;100683.00;;;10.60
11849;BMP180;5983;49.966;8.052;2022-11-25T12:12:05;100678.00;;;10.60
11849;BMP180;5983;49.966;8.052;2022-11-25T12:14:41;100676.00;;;11.20
11849;BMP180;5983;49.966;8.052;2022-11-25T12:17:17;100682.00;;;12.00
11849;BMP180;5983;49.966;8.052;2022-11-25T12:19:54;100682.00;;;12.10
11849;BMP180;5983;49.966;8.052;2022-11-25T12:22:28;100675.00;;;13.40
11849;BMP180;5983;49.966;8.052;2022-11-25T12:25:06;100677.00;;;13.50
11849;BMP180;5983;49.966;8.052;2022-11-25T12:27:39;100685.00;;;13.10
11849;BMP180;5983;49.966;8.052;2022-11-25T12:30:12;100695.00;;;12.80
11849;BMP180;5983;49.966;8.052;2022-11-25T12:32:55;100695.00;;;12.60
11849;BMP180;5983;49.966;8.052;2022-11-25T12:35:36;100686.00;;;12.40
11849;BMP180;5983;49.966;8.052;2022-11-25T12:38:20;100694.00;;;12.30
11849;BMP180;5983;49.966;8.052;2022-11-25T12:41:00;100692.00;;;12.10
11849;BMP180;5983;49.966;8.052;2022-11-25T12:43:38;100698.00;;;11.90
11849;BMP180;5983;49.966;8.052;2022-11-25T12:46:20;100695.00;;;11.80
11849;BMP180;5983;49.966;8.052;2022-11-25T12:48:48;100708.00;;;11.70
11849;BMP180;5983;49.966;8.052;2022-11-25T12:51:35;100703.00;;;11.50
11849;BMP180;5983;49.966;8.052;2022-11-25T12:54:26;100703.00;;;11.30
11849;BMP180;5983;49.966;8.052;2022-11-25T13:00:17;100718.00;;;11.40
11849;BMP180;5983;49.966;8.052;2022-11-25T13:03:11;100722.00;;;11.50
11849;BMP180;5983;49.966;8.052;2022-11-25T13:06:13;100722.00;;;11.30
11849;BMP180;5983;49.966;8.052;2022-11-25T13:08:56;100736.00;;;11.10
11849;BMP180;5983;49.966;8.052;2022-11-25T13:12:02;100727.00;;;11.00
11849;BMP180;5983;49.966;8.052;2022-11-25T13:15:00;100733.00;;;10.80
11849;BMP180;5983;49.966;8.052;2022-11-25T13:17:38;100735.00;;;10.70
11849;BMP180;5983;49.966;8.052;2022-11-25T13:20:49;100734.00;;;10.60
11849;BMP180;5983;49.966;8.052;2022-11-25T13:23:23;100743.00;;;10.50
11849;BMP180;5983;49.966;8.052;2022-11-25T13:26:28;100747.00;;;10.40
11849;BMP180;5983;49.966;8.052;2022-11-25T13:28:41;100755.00;;;10.30
11849;BMP180;5983;49.966;8.052;2022-11-25T13:31:21;100744.00;;;10.30
11849;BMP180;5983;49.966;8.052;2022-11-25T13:34:15;100750.00;;;10.20
11849;BMP180;5983;49.966;8.052;2022-11-25T13:36:52;100755.00;;;10.20
11849;BMP180;5983;49.966;8.052;2022-11-25T13:39:30;100754.00;;;10.30
11849;BMP180;5983;49.966;8.052;2022-11-25T13:42:11;100754.00;;;10.20
11849;BMP180;5983;49.966;8.052;2022-11-25T13:45:20;100759.00;;;10.20
11849;BMP180;5983;49.966;8.052;2022-11-25T13:48:14;100768.00;;;10.10
11849;BMP180;5983;49.966;8.052;2022-11-25T13:50:43;100773.00;;;10.10
11849;BMP180;5983;49.966;8.052;2022-11-25T13:53:21;100772.00;;;10.10
11849;BMP180;5983;49.966;8.052;2022-11-25T13:55:52;100775.00;;;10.10
11849;BMP180;5983;49.966;8.052;2022-11-25T13:58:31;100771.00;;;10.00
11849;BMP180;5983;49.966;8.052;2022-11-25T14:01:21;100779.00;;;9.90
11849;BMP180;5983;49.966;8.052;2022-11-25T14:03:54;100776.00;;;9.90
11849;BMP180;5983;49.966;8.052;2022-11-25T14:07:02;100780.00;;;10.00
11849;BMP180;5983;49.966;8.052;2022-11-25T14:09:54;100785.00;;;10.00
11849;BMP180;5983;49.966;8.052;2022-11-25T14:12:42;100782.00;;;10.20
11849;BMP180;5983;49.966;8.052;2022-11-25T14:15:33;100784.00;;;10.50
11849;BMP180;5983;49.966;8.052;2022-11-25T14:18:39;100788.00;;;10.70
11849;BMP180;5983;49.966;8.052;2022-11-25T14:21:18;100783.00;;;10.80
11849;BMP180;5983;49.966;8.052;2022-11-25T14:24:10;100781.00;;;10.90
11849;BMP180;5983;49.966;8.052;2022-11-25T14:26:40;100783.00;;;10.90
11849;BMP180;5983;49.966;8.052;2022-11-25T14:29:17;100794.00;;;11.00
11849;BMP180;5983;49.966;8.052;2022-11-25T14:31:52;100792.00;;;10.90
11849;BMP180;5983;49.966;8.052;2022-11-25T14:34:26;100796.00;;;10.80
11849;BMP180;5983;49.966;8.052;2022-11-25T14:37:02;100790.00;;;10.70
11849;BMP180;5983;49.966;8.052;2022-11-25T14:39:38;100797.00;;;10.60
11849;BMP180;5983;49.966;8.052;2022-11-25T14:42:11;100791.00;;;10.50
11849;BMP180;5983;49.966;8.052;2022-11-25T14:44:46;100801.00;;;10.40
11849;BMP180;5983;49.966;8.052;2022-11-25T14:47:19;100806.00;;;10.40
11849;BMP180;5983;49.966;8.052;2022-11-25T14:49:50;100808.00;;;10.30
11849;BMP180;5983;49.966;8.052;2022-11-25T14:52:22;100813.00;;;10.30
11849;BMP180;5983;49.966;8.052;2022-11-25T14:54:53;100814.00;;;10.20
11849;BMP180;5983;49.966;8.052;2022-11-25T14:57:24;100818.00;;;10.10